Highland, Minnesota
Current Conditions -  °F | °C
As of 5:56 PM on Monday 22 Dec 2014 (Local Time) from KFKA Reporting Station
Light Rain Light Rain  
Wind Chill: 25°   Ceiling: 400
Heat Index: 32°   Visibility: 3mi
Dew Point: 32°   Wind: 8mph
Humidity: 99%   Direction: 90°E
Pressure: 29.57"   Gusts: NA
Location:  43.7165°N, 91.9871°W
Report Text: KFKA 222356Z AUTO 09007KT 3SM -RA OVC004 00/00 A2957 RMK AO2 60004 T00010000 10017 20001
Loading
Personal Weather Stations






























Interactive Weather Map New forecast layout! Learn more

10-Day Weather Forecast

Advertisements
Track Severe Weather on mobile